Almyra, Arkansas
Current Conditions -  °F | °C
As of 8:35 PM on Friday 24 Oct 2014 (Local Time) from KSGT Reporting Station
Clear Clear  
Wind Chill: 18°   Ceiling: Unl
Heat Index: 18°   Visibility: 10mi
Dew Point: 12°   Wind: 5mph
Humidity: 68%   Direction: 190°S
Pressure: 30.11"   Gusts: NA
Location:  34.41°N, 91.41°W
Report Text: KSGT 250135Z AUTO 19004KT 10SM CLR 18/12 A3011 RMK AO1
Loading
Personal Weather Stations






























Interactive Weather Map
Tropical Storm Tracking
New forecast layout! Learn more

10-Day Weather Forecast

Advertisements
Track Severe Weather on mobile